AirNav   Pilot Hours Calculator
 
 945 users online  

76AZ West Valley Medical Center Heliport
Goodyear, Arizona, USA

GOING TO GOODYEAR?


FAA INFORMATION EFFECTIVE 08 SEPTEMBER 2022

Location

FAA Identifier: 76AZ
Lat/Long: 33-27-40.7200N 112-21-09.9400W
33-27.678667N 112-21.165667W
33.4613111,-112.3527611
(estimated)
Elevation: 974 ft. / 297 m (estimated)
From city: 1 mile NE of GOODYEAR, AZ
Time zone: UTC -7 (year round; does not observe DST)
Zip code: 85338

Heliport Operations

Heliport use: Private use. Permission required prior to landing
Activation date: 10/2003
Control tower: no
ARTCC: ALBUQUERQUE CENTER
FSS: PRESCOTT FLIGHT SERVICE STATION
Attendance: UNATNDD
Wind indicator: yes
Segmented circle: no
Lights: FOR PERIMETER LGTS CALL (623) 882-1865.

Heliport Communications

WX AWOS-3 at GEU (5 nm NE): PHONE 623-877-8609
WX AWOS-3 at BXK (17 nm W): 119.625 (623-386-7627)
WX ASOS at PHX (17 nm E): PHONE 602-231-8557
WX ASOS at DVT (19 nm NE): 126.5 (623-587-7764)

Nearby radio navigation aids

VOR radial/distance  VOR name  Freq  Var
PXRr263/19.2PHOENIX VORTAC115.6012E
BXKr075/23.6BUCKEYE VORTAC110.6014E
GBNr014/34.3GILA BEND VORTAC116.6014E
IWAr272/36.4WILLIE VORTAC113.3013E

Heliport Services

Runway Information

Helipad H1

Dimensions: 40 x 40 ft. / 12 x 12 m
Surface: concrete
Runway edge lights: PERI
Latitude: 33-27.678667N
Longitude: 112-21.168000W
Elevation: 974.0 ft.
Traffic pattern: leftleft

Helipad H2

Dimensions: 40 x 40 ft. / 12 x 12 m
Surface: asphalt/concrete
Latitude: 33-27.678667N
Longitude: 112-21.163167W
Elevation: 974.0 ft.
Traffic pattern: leftleft

Heliport Ownership and Management from official FAA records

Ownership: Privately-owned
Owner: WEST VALLEY HOSPITAL
13677 W. MCDOWELL RD.
GOODYEAR, AZ 85395
Phone 623-882-1507
Manager: JIM KRUCKENBERG
13677 W. MCDOWELL RD.
GOODYEAR, AZ 85395
Phone 623-882-1759

Additional Remarks

FOR CD CTC PHOENIX APCH AT 602-306-2565.

Instrument Procedures

There are no published instrument procedures at 76AZ.

Some nearby airports with instrument procedures:

KGYR - Phoenix Goodyear Airport (3 nm SW)
KLUF - Luke Air Force Base (5 nm N)
KGEU - Glendale Municipal Airport (5 nm NE)
KPHX - Phoenix Sky Harbor International Airport (17 nm E)
KDVT - Phoenix Deer Valley Airport (19 nm NE)
 
Loc | Ops | Rwys | IFR | FBO | Links
Com | Nav | Svcs | Stats | Notes
Area around 76AZ (West Valley Medical Center Heliport)
 
Road maps at: MapQuest Bing Google
 
Aerial photo
No photo
 
Sectional chart

 
Airport distance calculator
Flying to West Valley Medical Center Heliport? Find the distance to fly.

From to 76AZ

Sunrise and sunset
Times for 02-Oct-2022
 Local
(UTC-7)
 Zulu
(UTC)
Morning civil twilight06:0113:01
Sunrise06:2513:25
Sunset18:1201:12
Evening civil twilight18:3701:37

Current date and time
Zulu (UTC)  02-Oct-2022 20:16:41
Local (UTC-7)  02-Oct-2022 13:16:41
 
METAR
KGYR 
3nm S 
021747Z VRB04KT 10SM FEW070 31/18 A2994
KLUF 
3nm N 
021955Z AUTO 00000KT 10SM CLR 34/14 A2987 RMK AO2 SLP099 T03390139 $
KGEU 
5nm NE 
021947Z VRB04KT 10SM SCT100 33/14 A2987
KPHX 
15nm E 
021951Z VRB03KT 10SM FEW100 FEW250 34/13 A2987 RMK AO2 SLP095 CB DSNT NW T03440128 $
KBXK 
17nm W 
021955Z AUTO 15008KT 10SM CLR 33/15 A2989 RMK A01
KDVT 
20nm NE 
021953Z 10SM CLR 33/12 A2991 RMK AO2 SLP102 T03280117
TAF
KPHX 
15nm E 
021720Z 0218/0324 16007KT P6SM FEW100 FEW150 FM022200 21007KT P6SM FEW100 FEW150 FM030000 25006KT P6SM FEW100 FEW150 FM030400 10005KT P6SM FEW100 SCT150 SCT250 FM031700 14008KT P6SM FEW100 FEW150 FM032100 28008KT P6SM FEW100 FEW150
KDVT 
20nm NE 
021720Z 0218/0318 18008KT P6SM FEW100 FEW150 FM022200 23009KT P6SM FEW100 FEW150 FM030400 03008KT P6SM FEW100 SCT150 SCT250 FM030900 VRB04KT P6SM FEW100 FEW150
NOTAMs
Click for the latest NOTAMs
NOTAMs are issued by the DoD/FAA and will open in a separate window not controlled by AirNav.

 

 
 

Would you like to see your business listed on this page?

 If your business provides an interesting product or service to pilots, flight crews, aircraft, or users of the West Valley Medical Center Heliport, you should consider listing it here.  To start the listing process, click on the button below
 
Add a business
 

Other Pages about West Valley Medical Center Heliport

Update a link
 
Copyright © AirNav, LLC. All rights reserved. Privacy Policy  Contact